Glenlivet, United Kingdom

1:28 AM GMT on November 28, 2014 (GMT +0000)
Glenlivet | Change Station
CLOSE
Current Station
Personal Weather Station
Location: Ballindalloch, MORAY
Elevation: 945 ft
Nearby Weather Stations

Elev 945 ft 57.31 °N, 3.41 °W | Updated 13 minutes ago

Mist
Mist
46.6 °F
Feels Like 47 °F
N
2.2
Wind Variable Wind from ENE
Gusts 3.1 mph

Today
High -- | Low -- °F
--% Chance of Precip.
Yesterday
High -- | Low -- °F
Precip. -- in
8:23 AM 3:39 PM
Waxing Crescent, 35% visible
Pressure 29.65 in
Visibility 0.8 miles
Clouds
Windchill 47 °F
Dew Point 39 °F
Humidity 76%
Rainfall 0.00 in
Snow Depth Not available.
UV Not available.
Pollen Not available.
Air Quality Not available.
Flu Activity Not available.
METAR EGPE 280120Z AUTO 06006KT 1300 BR NCD 06/06 Q1004

More Conditions Fewer Conditions

Pressure 29.65 in
Visibility 0.8 miles
Clouds
Windchill 47 °F
Dew Point 39 °F
Humidity 76%
Rainfall 0.00 in
Snow Depth Not available.
UV Not available.
Pollen Not available.
Air Quality Not available.
Flu Activity Not available.
METAR EGPE 280120Z AUTO 06006KT 1300 BR NCD 06/06 Q1004

More Conditions Fewer Conditions

10-Day Weather Forecast

Almanac

Astronomy

Nov. 28, 2014 Rise Set
Actual Time
Civil Twilight
Nautical Twilight
Astronomical Twilight
Moon
Length of Visible Light
Length of Day
Tomorrow will be .
, % of the Moon is Illuminated

Today's Extremes

Country Highs Country Lows

Community

WunderPhotos

Upload Photos

1,774,148 photos uploaded!

WunderBlogs® & News

Nearby

Air Quality

  Air Quality AQ Index Pollutant
Not available.

Snow Depth

Station Depth Elevation

Earthquake Activity

City Distance Mag. Time & Date
Minimum magnitude displayed is 2.5.

Coastal Water Temperatures

Place Temperature

Nearby Weather Stations